createdAt,value
2018-07-17T00:00:00.973Z,70.85
2018-07-17T00:02:29.869Z,72.17
2018-07-17T00:04:58.866Z,72.51
2018-07-17T00:07:27.805Z,72.08
2018-07-17T00:09:56.761Z,71.82
2018-07-17T00:12:25.971Z,72.89
2018-07-17T00:14:55.041Z,72.66
2018-07-17T00:17:23.957Z,72.60
2018-07-17T00:19:52.867Z,72.46
2018-07-17T00:22:21.944Z,72.14
2018-07-17T00:24:50.910Z,73.59
2018-07-17T00:27:19.820Z,73.68
2018-07-17T00:29:48.739Z,73.54
2018-07-17T00:32:17.693Z,73.31
2018-07-17T00:34:46.682Z,73.91
2018-07-17T00:37:15.583Z,74.30
2018-07-17T00:39:44.484Z,74.23
2018-07-17T00:42:13.429Z,73.62
2018-07-17T00:44:42.357Z,74.08
2018-07-17T00:47:11.260Z,75.27
2018-07-17T00:49:40.185Z,74.99
2018-07-17T00:52:09.124Z,75.58
2018-07-17T00:54:38.046Z,75.74
2018-07-17T00:57:07.012Z,75.13
2018-07-17T00:59:35.946Z,75.86
2018-07-17T01:02:10.303Z,76.46
2018-07-17T01:04:44.645Z,77.14
2018-07-17T01:07:19.007Z,76.98
2018-07-17T01:09:53.296Z,76.26
2018-07-17T01:12:21.433Z,76.79
2018-07-17T01:15:55.518Z,76.96
2018-07-17T01:18:24.478Z,76.18
2018-07-17T01:20:53.465Z,76.40
2018-07-17T01:23:22.476Z,76.54
2018-07-17T01:25:51.628Z,77.25
2018-07-17T01:28:20.543Z,77.35
2018-07-17T01:30:49.496Z,76.81
2018-07-17T01:33:18.392Z,78.55
2018-07-17T01:35:47.349Z,78.07
2018-07-17T01:38:16.359Z,77.95
2018-07-17T01:40:45.262Z,78.46
2018-07-17T01:43:14.193Z,78.60
2018-07-17T01:45:43.289Z,78.17
2018-07-17T01:48:12.196Z,78.02
2018-07-17T01:50:41.456Z,78.53
2018-07-17T01:53:10.363Z,79.05
2018-07-17T01:55:39.301Z,78.20
2018-07-17T01:58:08.229Z,78.04
2018-07-17T02:00:37.607Z,78.86
2018-07-17T02:03:06.811Z,78.94
2018-07-17T02:05:35.787Z,78.61
2018-07-17T02:08:04.708Z,78.69
2018-07-17T02:10:33.634Z,78.77
2018-07-17T02:13:02.616Z,79.04
2018-07-17T02:15:31.530Z,78.56
2018-07-17T02:18:00.550Z,78.71
2018-07-17T02:20:29.505Z,78.38
2018-07-17T02:22:58.455Z,78.97
2018-07-17T02:25:27.408Z,78.05
2018-07-17T02:27:56.343Z,78.68
2018-07-17T02:30:25.283Z,79.09
2018-07-17T02:32:54.396Z,79.22
2018-07-17T02:35:23.337Z,79.58
2018-07-17T02:37:52.364Z,79.77
2018-07-17T02:40:21.296Z,79.98
2018-07-17T02:43:01.725Z,79.75
2018-07-17T02:45:30.847Z,80.55
2018-07-17T02:47:59.797Z,79.84
2018-07-17T02:50:39.788Z,80.22
2018-07-17T02:53:10.416Z,79.66
2018-07-17T02:55:39.362Z,80.01
2018-07-17T02:58:08.327Z,79.75
2018-07-17T03:00:37.520Z,79.17
2018-07-17T03:03:06.598Z,78.72
2018-07-17T03:05:35.624Z,79.53
2018-07-17T03:08:04.584Z,78.93
2018-07-17T03:10:33.605Z,78.58
2018-07-17T03:13:02.508Z,78.76
2018-07-17T03:15:31.455Z,77.37
2018-07-17T03:18:00.422Z,77.42
2018-07-17T03:20:29.373Z,77.82
2018-07-17T03:22:58.363Z,77.72
2018-07-17T03:25:27.292Z,78.10
2018-07-17T03:27:56.226Z,77.82
2018-07-17T03:30:25.140Z,77.11
2018-07-17T03:32:54.346Z,77.21
2018-07-17T03:35:23.377Z,77.19
2018-07-17T03:37:52.313Z,77.25
2018-07-17T03:40:21.229Z,76.45
2018-07-17T03:42:50.137Z,77.24
2018-07-17T03:45:19.133Z,76.16
2018-07-17T03:47:48.087Z,75.63
2018-07-17T03:50:16.980Z,75.55
2018-07-17T03:52:45.921Z,75.61
2018-07-17T03:55:14.937Z,75.80
2018-07-17T03:57:43.863Z,75.59
2018-07-17T04:00:12.800Z,75.74
2018-07-17T04:02:41.818Z,76.67
2018-07-17T04:05:10.707Z,75.17
2018-07-17T04:07:39.663Z,75.67
2018-07-17T04:10:08.662Z,74.83
2018-07-17T04:12:37.593Z,75.13
2018-07-17T04:15:06.548Z,75.80
2018-07-17T04:17:35.470Z,76.17
2018-07-17T04:20:04.460Z,75.81
2018-07-17T04:22:33.417Z,76.64
2018-07-17T04:25:02.528Z,76.69
2018-07-17T04:27:31.449Z,76.62
2018-07-17T04:30:00.393Z,75.70
2018-07-17T04:32:29.301Z,75.79
2018-07-17T04:34:58.233Z,77.18
2018-07-17T04:37:27.139Z,76.59
2018-07-17T04:39:56.057Z,75.29
2018-07-17T04:42:24.997Z,74.96
2018-07-17T04:44:54.096Z,74.85
2018-07-17T04:47:23.067Z,74.54
2018-07-17T04:49:52.010Z,73.99
2018-07-17T04:52:20.973Z,73.81
2018-07-17T04:54:49.907Z,74.32
2018-07-17T04:57:18.854Z,74.71
2018-07-17T04:59:47.769Z,74.50
2018-07-17T05:02:16.675Z,74.31
2018-07-17T05:04:45.603Z,73.54
2018-07-17T05:07:14.554Z,73.21
2018-07-17T05:09:43.504Z,72.13
2018-07-17T05:12:12.453Z,72.01
2018-07-17T05:14:41.478Z,71.53
2018-07-17T05:17:10.709Z,72.31
2018-07-17T05:19:39.627Z,71.33
2018-07-17T05:22:08.597Z,69.87
2018-07-17T05:24:37.506Z,70.92
2018-07-17T05:27:06.412Z,69.54
2018-07-17T05:29:35.415Z,68.81
2018-07-17T05:32:04.379Z,66.54
2018-07-17T05:34:33.304Z,66.98
2018-07-17T05:37:02.229Z,66.85
2018-07-17T05:39:31.225Z,67.23
2018-07-17T05:42:00.137Z,69.02
2018-07-17T05:44:29.044Z,67.29
2018-07-17T05:46:58.096Z,66.52
2018-07-17T05:49:27.010Z,64.75
2018-07-17T05:51:55.992Z,65.19
2018-07-17T05:54:24.848Z,66.17
2018-07-17T05:56:53.775Z,62.57
2018-07-17T05:59:22.699Z,64.20
2018-07-17T06:01:51.613Z,63.30
2018-07-17T06:04:20.554Z,63.61
2018-07-17T06:06:49.477Z,60.52
2018-07-17T06:09:18.387Z,58.87
2018-07-17T06:11:47.298Z,58.41
2018-07-17T06:14:16.250Z,57.09
2018-07-17T06:16:45.205Z,55.38
2018-07-17T06:19:14.180Z,54.94
2018-07-17T06:21:43.094Z,53.19
2018-07-17T06:24:12.020Z,53.58
2018-07-17T06:26:40.970Z,49.38
2018-07-17T06:29:09.925Z,49.43
2018-07-17T06:31:38.877Z,47.47
2018-07-17T06:34:07.864Z,47.44
2018-07-17T06:36:36.802Z,47.57
2018-07-17T06:39:07.093Z,46.84
2018-07-17T06:41:36.015Z,49.42
2018-07-17T06:44:04.989Z,45.94
2018-07-17T06:46:33.930Z,47.99
2018-07-17T06:49:02.852Z,48.24
2018-07-17T06:51:31.827Z,48.38
2018-07-17T06:54:00.817Z,49.57
2018-07-17T06:56:29.736Z,51.63
2018-07-17T06:58:58.717Z,51.82
2018-07-17T07:01:27.651Z,51.67
2018-07-17T07:03:57.559Z,49.98
2018-07-17T07:06:27.370Z,52.92
2018-07-17T07:08:56.232Z,52.54
2018-07-17T07:11:25.355Z,53.66
2018-07-17T07:13:54.282Z,53.04
2018-07-17T07:16:23.215Z,51.65
2018-07-17T07:18:52.136Z,50.52
2018-07-17T07:21:21.067Z,50.01
2018-07-17T07:23:49.987Z,49.75
2018-07-17T07:26:19.076Z,48.14
2018-07-17T07:28:48.018Z,46.53
2018-07-17T07:31:16.920Z,46.13
2018-07-17T07:33:45.850Z,43.09
2018-07-17T07:36:14.807Z,41.12
2018-07-17T07:38:43.744Z,40.78
2018-07-17T07:41:12.724Z,42.08
2018-07-17T07:43:41.674Z,41.88
2018-07-17T07:46:10.728Z,44.39
2018-07-17T07:48:41.292Z,44.85
2018-07-17T07:51:11.125Z,45.70
2018-07-17T07:53:40.161Z,41.02
2018-07-17T07:56:09.124Z,40.54
2018-07-17T07:58:38.049Z,42.17
2018-07-17T08:01:07.525Z,40.54
2018-07-17T08:03:36.487Z,38.10
2018-07-17T08:06:05.398Z,40.63
2018-07-17T08:08:34.386Z,38.59
2018-07-17T08:11:03.343Z,39.97
2018-07-17T08:13:32.262Z,44.72
2018-07-17T08:16:01.173Z,43.11
2018-07-17T08:18:30.116Z,45.47
2018-07-17T08:20:59.021Z,46.74
2018-07-17T08:23:27.948Z,47.24
2018-07-17T08:25:56.926Z,45.64
2018-07-17T08:28:25.855Z,44.53
2018-07-17T08:30:54.839Z,41.57
2018-07-17T08:33:23.829Z,43.12
2018-07-17T08:35:52.829Z,41.91
2018-07-17T08:38:21.735Z,41.61
2018-07-17T08:40:50.649Z,40.08
2018-07-17T08:43:19.858Z,41.43
2018-07-17T08:45:48.692Z,41.30
2018-07-17T08:48:17.662Z,40.66
2018-07-17T08:50:46.990Z,39.40
2018-07-17T08:53:15.897Z,41.22
2018-07-17T08:55:44.945Z,43.39
2018-07-17T08:58:13.865Z,41.05
2018-07-17T09:00:42.818Z,40.97
2018-07-17T09:03:11.862Z,39.86
2018-07-17T09:05:40.792Z,39.43
2018-07-17T09:08:09.729Z,38.80
2018-07-17T09:10:38.696Z,39.06
2018-07-17T09:13:07.660Z,36.34
2018-07-17T09:15:36.680Z,39.84
2018-07-17T09:18:05.613Z,39.81
2018-07-17T09:20:34.580Z,40.30
2018-07-17T09:23:03.488Z,40.35
2018-07-17T09:25:32.469Z,39.17
2018-07-17T09:28:01.385Z,41.47
2018-07-17T09:30:35.631Z,39.63
2018-07-17T09:33:04.577Z,38.83
2018-07-17T09:35:33.548Z,36.35
2018-07-17T09:38:02.538Z,37.46
2018-07-17T09:40:31.435Z,35.87
2018-07-17T09:43:00.339Z,33.61
2018-07-17T09:45:29.328Z,34.85
2018-07-17T09:47:58.256Z,33.52
2018-07-17T09:50:27.170Z,35.88
2018-07-17T09:52:56.274Z,33.78
2018-07-17T09:55:25.180Z,31.98
2018-07-17T09:57:54.373Z,35.68
2018-07-17T10:00:28.563Z,35.23
2018-07-17T10:02:57.478Z,37.46
2018-07-17T10:05:26.416Z,35.03
2018-07-17T10:07:55.339Z,37.63
2018-07-17T10:10:24.303Z,38.13
2018-07-17T10:12:53.223Z,36.08
2018-07-17T10:15:22.159Z,35.32
2018-07-17T10:17:51.237Z,35.62
2018-07-17T10:20:20.414Z,35.08
2018-07-17T10:22:49.354Z,35.66
2018-07-17T10:25:18.312Z,35.31
2018-07-17T10:27:47.216Z,35.78
2018-07-17T10:30:16.147Z,36.63
2018-07-17T10:32:45.046Z,37.32
2018-07-17T10:35:13.992Z,34.81
2018-07-17T10:37:43.138Z,35.72
2018-07-17T10:40:12.359Z,34.81
2018-07-17T10:42:41.284Z,34.75
2018-07-17T10:45:10.217Z,34.70
2018-07-17T10:47:39.172Z,35.27
2018-07-17T10:50:08.096Z,35.70
2018-07-17T10:52:37.028Z,33.95
2018-07-17T10:55:06.007Z,32.72
2018-07-17T10:57:34.921Z,34.21
2018-07-17T11:00:04.250Z,35.52
2018-07-17T11:02:33.225Z,33.87
2018-07-17T11:05:02.143Z,34.21
2018-07-17T11:07:31.076Z,34.25
2018-07-17T11:10:00.081Z,34.69
2018-07-17T11:12:29.244Z,35.99
2018-07-17T11:14:58.678Z,35.96
2018-07-17T11:17:27.708Z,35.72
2018-07-17T11:19:56.677Z,38.56
2018-07-17T11:22:25.820Z,36.00
2018-07-17T11:24:54.796Z,34.50
2018-07-17T11:27:23.860Z,34.54
2018-07-17T11:29:52.997Z,34.30
2018-07-17T11:32:21.942Z,33.41
2018-07-17T11:34:51.134Z,31.79
2018-07-17T11:37:20.090Z,32.38
2018-07-17T11:39:49.024Z,34.88
2018-07-17T11:42:18.053Z,33.54
2018-07-17T11:44:46.980Z,33.50
2018-07-17T11:47:15.893Z,32.71
2018-07-17T11:49:44.837Z,32.55
2018-07-17T11:52:13.775Z,31.93
2018-07-17T11:54:42.703Z,31.52
2018-07-17T11:57:11.607Z,31.11
2018-07-17T11:59:40.659Z,31.97
2018-07-17T12:02:09.484Z,31.76
2018-07-17T12:04:38.400Z,32.43
2018-07-17T12:07:07.334Z,31.44
2018-07-17T12:09:36.296Z,29.23
2018-07-17T12:12:05.548Z,31.69
2018-07-17T12:14:34.446Z,31.30
2018-07-17T12:17:03.466Z,29.41
2018-07-17T12:19:32.504Z,28.08
2018-07-17T12:22:01.406Z,29.14
2018-07-17T12:24:30.332Z,29.38
2018-07-17T12:26:59.274Z,29.52
2018-07-17T12:29:28.236Z,27.45
2018-07-17T12:31:57.162Z,26.14
2018-07-17T12:34:26.081Z,27.85
2018-07-17T12:36:55.027Z,26.09
2018-07-17T12:39:24.061Z,27.47
2018-07-17T12:41:52.999Z,26.67
2018-07-17T12:44:21.986Z,26.83
2018-07-17T12:46:50.878Z,26.11
2018-07-17T12:49:19.891Z,27.33
2018-07-17T12:51:48.924Z,26.69
2018-07-17T12:54:18.142Z,27.69
2018-07-17T12:56:47.267Z,27.18
2018-07-17T12:59:16.272Z,25.70
2018-07-17T13:01:45.227Z,27.43
2018-07-17T13:04:14.152Z,25.96
2018-07-17T13:06:43.104Z,26.77
2018-07-17T13:09:12.040Z,27.03
2018-07-17T13:11:40.988Z,27.22
2018-07-17T13:14:09.941Z,26.60
2018-07-17T13:16:38.963Z,26.56
2018-07-17T13:19:07.929Z,26.30
2018-07-17T13:21:37.234Z,25.03
2018-07-17T13:24:06.212Z,27.44
2018-07-17T13:26:35.365Z,27.04
2018-07-17T13:29:04.436Z,27.46
2018-07-17T13:31:33.391Z,28.79
2018-07-17T13:34:02.504Z,26.84
2018-07-17T13:36:31.478Z,27.94
2018-07-17T13:39:00.424Z,28.79
2018-07-17T13:41:29.383Z,28.26
2018-07-17T13:43:58.338Z,28.71
2018-07-17T13:46:27.452Z,28.93
2018-07-17T13:48:56.399Z,28.27
2018-07-17T13:51:26.906Z,29.85
2018-07-17T13:53:56.027Z,28.60
2018-07-17T13:56:25.236Z,27.30
2018-07-17T13:58:54.233Z,29.39
2018-07-17T14:01:23.226Z,27.47
2018-07-17T14:03:52.198Z,26.97
2018-07-17T14:06:21.155Z,28.32
2018-07-17T14:08:50.146Z,28.75
2018-07-17T14:11:19.157Z,29.13
2018-07-17T14:13:48.142Z,29.09
2018-07-17T14:16:21.373Z,27.43
2018-07-17T14:18:50.331Z,28.95
2018-07-17T14:21:19.309Z,29.06
2018-07-17T14:23:48.383Z,29.70
2018-07-17T14:26:17.297Z,29.16
2018-07-17T14:28:46.320Z,30.56
2018-07-17T14:31:15.712Z,29.22
2018-07-17T14:33:44.640Z,30.42
2018-07-17T14:36:13.556Z,30.72
2018-07-17T14:38:42.514Z,29.61
2018-07-17T14:41:11.570Z,30.19
2018-07-17T14:43:40.496Z,31.02
2018-07-17T14:46:14.227Z,30.63
2018-07-17T14:48:47.089Z,30.84
2018-07-17T14:51:16.035Z,31.27
2018-07-17T14:53:44.949Z,29.79
2018-07-17T14:56:13.879Z,30.52
2018-07-17T14:58:42.925Z,31.04
2018-07-17T15:01:11.985Z,31.14
2018-07-17T15:03:40.910Z,32.09
2018-07-17T15:06:09.863Z,31.67
2018-07-17T15:08:38.829Z,31.32
2018-07-17T15:11:08.329Z,30.72
2018-07-17T15:13:37.408Z,28.51
2018-07-17T15:16:06.394Z,29.74
2018-07-17T15:18:35.307Z,29.90
2018-07-17T15:21:04.408Z,31.00
2018-07-17T15:23:33.322Z,30.01
2018-07-17T15:26:02.268Z,30.72
2018-07-17T15:28:31.192Z,31.54
2018-07-17T15:31:00.719Z,30.49
2018-07-17T15:33:29.670Z,31.69
2018-07-17T15:35:58.568Z,31.80
2018-07-17T15:38:27.633Z,32.89
2018-07-17T15:40:57.894Z,32.88
2018-07-17T15:43:26.797Z,33.14
2018-07-17T15:45:55.813Z,30.45
2018-07-17T15:48:24.742Z,31.60
2018-07-17T15:50:53.909Z,31.27
2018-07-17T15:53:22.911Z,30.92
2018-07-17T15:55:51.967Z,31.91
2018-07-17T15:58:21.031Z,31.85
2018-07-17T16:00:50.142Z,31.16
2018-07-17T16:03:19.287Z,32.22
2018-07-17T16:05:48.315Z,30.81
2018-07-17T16:08:17.265Z,30.44
2018-07-17T16:10:46.330Z,31.94
2018-07-17T16:13:15.349Z,32.48
2018-07-17T16:15:44.206Z,30.39
2018-07-17T16:18:13.251Z,32.11
2018-07-17T16:20:42.187Z,30.78
2018-07-17T16:23:11.101Z,30.52
2018-07-17T16:25:40.078Z,31.71
2018-07-17T16:28:08.977Z,32.00
2018-07-17T16:30:37.954Z,31.44
2018-07-17T16:33:06.908Z,32.14
2018-07-17T16:35:35.917Z,31.60
2018-07-17T16:38:04.916Z,32.57
2018-07-17T16:40:33.920Z,31.99
2018-07-17T16:43:02.848Z,32.65
2018-07-17T16:45:31.798Z,31.48
2018-07-17T16:48:00.827Z,33.44
2018-07-17T16:50:29.739Z,32.83
2018-07-17T16:52:58.686Z,33.23
2018-07-17T16:55:27.598Z,33.00
2018-07-17T16:57:56.539Z,31.83
2018-07-17T17:00:25.501Z,32.77
2018-07-17T17:02:54.426Z,32.58
2018-07-17T17:05:23.374Z,33.68
2018-07-17T17:07:52.496Z,33.90
2018-07-17T17:10:21.667Z,33.36
2018-07-17T17:12:50.662Z,34.48
2018-07-17T17:15:19.607Z,34.15
2018-07-17T17:17:48.557Z,33.88
2018-07-17T17:20:17.874Z,34.37
2018-07-17T17:22:46.900Z,34.79
2018-07-17T17:25:15.810Z,33.95
2018-07-17T17:27:44.773Z,35.00
2018-07-17T17:30:13.718Z,35.32
2018-07-17T17:32:42.711Z,35.62
2018-07-17T17:35:11.649Z,35.08
2018-07-17T17:37:40.650Z,35.35
2018-07-17T17:40:09.630Z,35.33
2018-07-17T17:42:38.642Z,35.96
2018-07-17T17:45:07.573Z,35.06
2018-07-17T17:47:36.512Z,36.05
2018-07-17T17:50:05.438Z,35.84
2018-07-17T17:52:34.392Z,35.97
2018-07-17T17:55:03.319Z,35.10
2018-07-17T17:57:32.224Z,35.11
2018-07-17T18:00:01.201Z,35.46
2018-07-17T18:02:30.147Z,36.82
2018-07-17T18:04:59.100Z,36.03
2018-07-17T18:07:28.077Z,36.39
2018-07-17T18:09:57.045Z,35.87
2018-07-17T18:12:25.996Z,36.13
2018-07-17T18:14:55.028Z,36.68
2018-07-17T18:17:25.639Z,36.61
2018-07-17T18:19:54.681Z,37.18
2018-07-17T18:22:26.883Z,38.53
2018-07-17T18:24:55.857Z,38.31
2018-07-17T18:27:24.813Z,37.47
2018-07-17T18:29:53.835Z,39.23
2018-07-17T18:32:22.756Z,39.00
2018-07-17T18:34:51.690Z,39.09
2018-07-17T18:37:20.620Z,40.10
2018-07-17T18:39:49.575Z,41.57
2018-07-17T18:42:18.634Z,42.51
2018-07-17T18:44:47.630Z,43.57
2018-07-17T18:47:16.613Z,43.38
2018-07-17T18:49:45.574Z,44.33
2018-07-17T18:52:14.657Z,45.42
2018-07-17T18:54:43.521Z,45.50
2018-07-17T18:57:12.505Z,46.24
2018-07-17T18:59:41.779Z,46.27
2018-07-17T19:02:10.947Z,47.40
2018-07-17T19:04:39.902Z,48.15
2018-07-17T19:07:08.988Z,48.76
2018-07-17T19:09:37.962Z,48.85
2018-07-17T19:12:07.582Z,49.91
2018-07-17T19:14:36.525Z,49.69
2018-07-17T19:17:05.515Z,50.97
2018-07-17T19:19:34.504Z,51.35
2018-07-17T19:22:03.427Z,51.48
2018-07-17T19:24:32.385Z,52.17
2018-07-17T19:27:01.369Z,52.73
2018-07-17T19:29:30.319Z,51.69
2018-07-17T19:31:59.288Z,52.93
2018-07-17T19:34:28.248Z,53.26
2018-07-17T19:36:57.199Z,55.07
2018-07-17T19:39:26.182Z,53.78
2018-07-17T19:41:55.148Z,55.27
2018-07-17T19:44:24.112Z,54.16
2018-07-17T19:46:53.125Z,54.60
2018-07-17T19:49:22.107Z,55.12
2018-07-17T19:51:51.019Z,56.32
2018-07-17T19:54:20.143Z,56.38
2018-07-17T19:56:49.125Z,56.21
2018-07-17T19:59:18.067Z,57.47
2018-07-17T20:01:47.203Z,60.14
2018-07-17T20:04:16.129Z,58.51
2018-07-17T20:06:45.085Z,59.62
2018-07-17T20:09:14.134Z,58.76
2018-07-17T20:11:43.134Z,58.52
2018-07-17T20:14:14.284Z,58.87
2018-07-17T20:16:43.304Z,59.71
2018-07-17T20:19:12.273Z,59.34
2018-07-17T20:21:41.213Z,60.37
2018-07-17T20:24:10.192Z,60.38
2018-07-17T20:26:39.187Z,61.43
2018-07-17T20:29:08.123Z,62.10
2018-07-17T20:31:37.376Z,61.43
2018-07-17T20:34:06.731Z,61.85
2018-07-17T20:36:35.676Z,62.61
2018-07-17T20:39:06.367Z,63.19
2018-07-17T20:41:35.651Z,63.66
2018-07-17T20:44:04.808Z,63.81
2018-07-17T20:46:33.824Z,63.40
2018-07-17T20:49:02.754Z,63.97
2018-07-17T20:51:31.895Z,63.16
2018-07-17T20:54:05.049Z,64.05
2018-07-17T20:56:34.013Z,63.83
2018-07-17T20:59:03.005Z,64.08
2018-07-17T21:01:31.997Z,64.21
2018-07-17T21:04:01.041Z,64.21
2018-07-17T21:06:30.196Z,65.02
2018-07-17T21:08:59.205Z,65.36
2018-07-17T21:11:28.217Z,65.49
2018-07-17T21:13:57.172Z,65.48
2018-07-17T21:16:27.532Z,66.03
2018-07-17T21:18:56.623Z,65.26
2018-07-17T21:21:25.762Z,65.93
2018-07-17T21:23:54.707Z,65.85
2018-07-17T21:26:23.739Z,67.04
2018-07-17T21:28:52.697Z,65.88
2018-07-17T21:31:21.678Z,66.24
2018-07-17T21:33:50.662Z,67.32
2018-07-17T21:36:19.572Z,67.59
2018-07-17T21:38:48.631Z,67.88
2018-07-17T21:41:17.656Z,67.40
2018-07-17T21:43:46.661Z,67.73
2018-07-17T21:46:15.628Z,67.97
2018-07-17T21:48:44.600Z,68.13
2018-07-17T21:51:13.575Z,68.85
2018-07-17T21:53:42.608Z,68.83
2018-07-17T21:56:11.554Z,69.04
2018-07-17T21:58:40.676Z,69.71
2018-07-17T22:01:09.728Z,69.84
2018-07-17T22:03:38.738Z,69.53
2018-07-17T22:06:07.794Z,69.74
2018-07-17T22:08:36.975Z,70.32
2018-07-17T22:11:05.917Z,69.96
2018-07-17T22:13:35.165Z,71.07
2018-07-17T22:16:04.231Z,70.62
2018-07-17T22:18:33.194Z,71.56
2018-07-17T22:21:02.167Z,71.68
2018-07-17T22:23:31.075Z,72.14
2018-07-17T22:26:00.147Z,71.54
2018-07-17T22:28:29.070Z,71.86
2018-07-17T22:30:58.036Z,71.89
2018-07-17T22:33:27.117Z,71.55
2018-07-17T22:35:56.101Z,71.68
2018-07-17T22:38:25.045Z,71.93
2018-07-17T22:40:54.095Z,72.13
2018-07-17T22:43:23.026Z,72.99
2018-07-17T22:45:52.149Z,72.74
2018-07-17T22:48:21.119Z,73.29
2018-07-17T22:50:50.033Z,73.34
2018-07-17T22:53:20.929Z,73.46
2018-07-17T22:59:16.206Z,74.41
2018-07-17T23:01:45.156Z,74.02
2018-07-17T23:04:14.185Z,74.16
2018-07-17T23:06:43.151Z,73.97
2018-07-17T23:09:12.279Z,73.80
2018-07-17T23:11:41.289Z,74.73
2018-07-17T23:14:10.285Z,73.71
2018-07-17T23:16:39.368Z,74.27
2018-07-17T23:19:08.397Z,74.58
2018-07-17T23:21:37.428Z,75.29
2018-07-17T23:24:06.396Z,74.88
2018-07-17T23:26:35.511Z,74.52
2018-07-17T23:29:04.706Z,74.92
2018-07-17T23:31:34.514Z,74.73
2018-07-17T23:34:03.495Z,74.81
2018-07-17T23:36:32.506Z,75.38
2018-07-17T23:39:01.409Z,75.32
2018-07-17T23:41:30.396Z,75.22
2018-07-17T23:43:59.308Z,75.01
2018-07-17T23:46:28.295Z,75.25
2018-07-17T23:48:57.153Z,76.49
2018-07-17T23:51:26.099Z,75.53
2018-07-17T23:53:55.055Z,75.62
2018-07-17T23:56:24.004Z,76.29
2018-07-17T23:58:52.956Z,76.23
